sensor_id;sensor_type;location;lat;lon;timestamp;P1;durP1;ratioP1;P2;durP2;ratioP2
15331;SDS011;7766;51.534;6.722;2022-10-28T00:00:40;15.13;;;6.30;;
15331;SDS011;7766;51.534;6.722;2022-10-28T00:01:41;14.35;;;6.18;;
15331;SDS011;7766;51.534;6.722;2022-10-28T00:02:42;15.10;;;6.20;;
15331;SDS011;7766;51.534;6.722;2022-10-28T00:03:47;16.75;;;6.05;;
15331;SDS011;7766;51.534;6.722;2022-10-28T00:04:50;15.38;;;6.47;;
15331;SDS011;7766;51.534;6.722;2022-10-28T00:05:51;19.02;;;6.90;;
15331;SDS011;7766;51.534;6.722;2022-10-28T00:06:53;18.70;;;6.57;;
15331;SDS011;7766;51.534;6.722;2022-10-28T00:07:54;18.50;;;7.13;;
15331;SDS011;7766;51.534;6.722;2022-10-28T00:08:55;17.13;;;7.05;;
15331;SDS011;7766;51.534;6.722;2022-10-28T00:09:57;15.15;;;6.68;;
15331;SDS011;7766;51.534;6.722;2022-10-28T00:11:11;18.23;;;6.43;;
15331;SDS011;7766;51.534;6.722;2022-10-28T00:12:14;12.85;;;5.85;;
15331;SDS011;7766;51.534;6.722;2022-10-28T00:13:15;11.10;;;5.63;;
15331;SDS011;7766;51.534;6.722;2022-10-28T00:14:16;15.73;;;6.22;;
15331;SDS011;7766;51.534;6.722;2022-10-28T00:15:17;17.10;;;6.13;;
15331;SDS011;7766;51.534;6.722;2022-10-28T00:16:19;15.40;;;6.15;;
15331;SDS011;7766;51.534;6.722;2022-10-28T00:17:22;13.63;;;5.80;;
15331;SDS011;7766;51.534;6.722;2022-10-28T00:18:23;14.52;;;6.60;;
15331;SDS011;7766;51.534;6.722;2022-10-28T00:19:24;14.55;;;7.07;;
15331;SDS011;7766;51.534;6.722;2022-10-28T00:20:25;17.50;;;7.40;;
15331;SDS011;7766;51.534;6.722;2022-10-28T00:21:26;18.42;;;7.80;;
15331;SDS011;7766;51.534;6.722;2022-10-28T00:22:30;16.45;;;6.63;;
15331;SDS011;7766;51.534;6.722;2022-10-28T00:23:31;21.70;;;8.65;;
15331;SDS011;7766;51.534;6.722;2022-10-28T00:24:32;21.30;;;8.38;;
15331;SDS011;7766;51.534;6.722;2022-10-28T00:25:33;20.25;;;9.20;;
15331;SDS011;7766;51.534;6.722;2022-10-28T00:26:35;27.20;;;9.27;;
15331;SDS011;7766;51.534;6.722;2022-10-28T00:27:38;24.92;;;9.20;;
15331;SDS011;7766;51.534;6.722;2022-10-28T00:28:43;20.08;;;8.63;;
15331;SDS011;7766;51.534;6.722;2022-10-28T00:29:46;19.25;;;9.43;;
15331;SDS011;7766;51.534;6.722;2022-10-28T00:30:47;23.52;;;10.02;;
15331;SDS011;7766;51.534;6.722;2022-10-28T00:31:48;20.08;;;9.93;;
15331;SDS011;7766;51.534;6.722;2022-10-28T00:32:49;24.10;;;9.15;;
15331;SDS011;7766;51.534;6.722;2022-10-28T00:33:51;25.08;;;8.90;;
15331;SDS011;7766;51.534;6.722;2022-10-28T00:34:52;20.40;;;9.10;;
15331;SDS011;7766;51.534;6.722;2022-10-28T00:35:53;21.48;;;9.60;;
15331;SDS011;7766;51.534;6.722;2022-10-28T00:36:54;17.27;;;9.02;;
15331;SDS011;7766;51.534;6.722;2022-10-28T00:37:55;19.40;;;7.95;;
15331;SDS011;7766;51.534;6.722;2022-10-28T00:38:57;23.63;;;9.25;;
15331;SDS011;7766;51.534;6.722;2022-10-28T00:39:59;16.83;;;8.32;;
15331;SDS011;7766;51.534;6.722;2022-10-28T00:41:00;17.90;;;7.57;;
15331;SDS011;7766;51.534;6.722;2022-10-28T00:42:01;16.08;;;7.10;;
15331;SDS011;7766;51.534;6.722;2022-10-28T00:43:07;14.02;;;6.80;;
15331;SDS011;7766;51.534;6.722;2022-10-28T00:45:45;19.27;;;7.25;;
15331;SDS011;7766;51.534;6.722;2022-10-28T00:46:46;17.23;;;6.55;;
15331;SDS011;7766;51.534;6.722;2022-10-28T00:47:56;13.73;;;5.80;;
15331;SDS011;7766;51.534;6.722;2022-10-28T00:49:02;13.95;;;6.20;;
15331;SDS011;7766;51.534;6.722;2022-10-28T00:50:36;15.40;;;5.78;;
15331;SDS011;7766;51.534;6.722;2022-10-28T00:51:42;15.38;;;6.68;;
15331;SDS011;7766;51.534;6.722;2022-10-28T00:52:46;19.92;;;7.25;;
15331;SDS011;7766;51.534;6.722;2022-10-28T00:53:52;14.73;;;7.20;;
15331;SDS011;7766;51.534;6.722;2022-10-28T00:54:55;21.65;;;9.13;;
15331;SDS011;7766;51.534;6.722;2022-10-28T00:55:58;23.55;;;10.07;;
15331;SDS011;7766;51.534;6.722;2022-10-28T00:57:01;16.40;;;9.77;;
15331;SDS011;7766;51.534;6.722;2022-10-28T00:58:05;24.38;;;10.40;;
15331;SDS011;7766;51.534;6.722;2022-10-28T00:59:10;16.13;;;9.30;;
15331;SDS011;7766;51.534;6.722;2022-10-28T01:00:17;24.98;;;12.68;;
15331;SDS011;7766;51.534;6.722;2022-10-28T01:01:18;12.68;;;6.60;;
15331;SDS011;7766;51.534;6.722;2022-10-28T01:02:19;14.65;;;6.30;;
15331;SDS011;7766;51.534;6.722;2022-10-28T01:03:21;12.18;;;5.88;;
15331;SDS011;7766;51.534;6.722;2022-10-28T01:04:22;11.93;;;5.03;;
15331;SDS011;7766;51.534;6.722;2022-10-28T01:05:24;9.38;;;5.15;;
15331;SDS011;7766;51.534;6.722;2022-10-28T01:06:28;12.25;;;5.28;;
15331;SDS011;7766;51.534;6.722;2022-10-28T01:07:29;14.35;;;5.25;;
15331;SDS011;7766;51.534;6.722;2022-10-28T01:08:30;13.93;;;5.25;;
15331;SDS011;7766;51.534;6.722;2022-10-28T01:09:31;17.50;;;5.45;;
15331;SDS011;7766;51.534;6.722;2022-10-28T01:12:16;11.40;;;5.13;;
15331;SDS011;7766;51.534;6.722;2022-10-28T01:15:11;11.73;;;4.53;;
15331;SDS011;7766;51.534;6.722;2022-10-28T01:20:43;10.23;;;4.10;;
15331;SDS011;7766;51.534;6.722;2022-10-28T01:23:00;9.88;;;4.28;;
15331;SDS011;7766;51.534;6.722;2022-10-28T01:24:42;12.32;;;4.70;;
15331;SDS011;7766;51.534;6.722;2022-10-28T01:25:59;9.82;;;4.22;;
15331;SDS011;7766;51.534;6.722;2022-10-28T01:28:03;10.13;;;4.60;;
15331;SDS011;7766;51.534;6.722;2022-10-28T01:31:08;12.77;;;3.83;;
15331;SDS011;7766;51.534;6.722;2022-10-28T01:32:21;7.78;;;4.15;;
15331;SDS011;7766;51.534;6.722;2022-10-28T01:33:40;8.80;;;3.83;;
15331;SDS011;7766;51.534;6.722;2022-10-28T01:36:14;10.80;;;3.88;;
15331;SDS011;7766;51.534;6.722;2022-10-28T01:37:17;9.40;;;3.95;;
15331;SDS011;7766;51.534;6.722;2022-10-28T01:38:48;10.73;;;3.90;;
15331;SDS011;7766;51.534;6.722;2022-10-28T01:39:58;11.47;;;4.73;;
15331;SDS011;7766;51.534;6.722;2022-10-28T01:41:27;10.67;;;4.47;;
15331;SDS011;7766;51.534;6.722;2022-10-28T01:45:24;13.47;;;4.67;;
15331;SDS011;7766;51.534;6.722;2022-10-28T01:46:40;12.93;;;5.23;;
15331;SDS011;7766;51.534;6.722;2022-10-28T01:47:49;9.97;;;4.43;;
15331;SDS011;7766;51.534;6.722;2022-10-28T01:48:59;13.23;;;4.83;;
15331;SDS011;7766;51.534;6.722;2022-10-28T01:50:23;11.00;;;3.83;;
15331;SDS011;7766;51.534;6.722;2022-10-28T01:51:53;12.00;;;3.90;;
15331;SDS011;7766;51.534;6.722;2022-10-28T01:52:59;8.65;;;3.67;;
15331;SDS011;7766;51.534;6.722;2022-10-28T01:54:08;11.30;;;3.90;;
15331;SDS011;7766;51.534;6.722;2022-10-28T01:55:24;9.23;;;4.20;;
15331;SDS011;7766;51.534;6.722;2022-10-28T01:56:32;7.83;;;3.87;;
15331;SDS011;7766;51.534;6.722;2022-10-28T01:57:36;11.60;;;4.30;;
15331;SDS011;7766;51.534;6.722;2022-10-28T01:58:39;12.70;;;4.40;;
15331;SDS011;7766;51.534;6.722;2022-10-28T01:59:42;12.73;;;4.70;;
15331;SDS011;7766;51.534;6.722;2022-10-28T02:00:46;10.40;;;4.37;;
15331;SDS011;7766;51.534;6.722;2022-10-28T02:01:47;11.33;;;4.20;;
15331;SDS011;7766;51.534;6.722;2022-10-28T02:02:48;12.90;;;5.00;;
15331;SDS011;7766;51.534;6.722;2022-10-28T02:03:49;8.97;;;4.57;;
15331;SDS011;7766;51.534;6.722;2022-10-28T02:05:01;13.43;;;5.27;;
15331;SDS011;7766;51.534;6.722;2022-10-28T02:06:23;14.90;;;6.80;;
15331;SDS011;7766;51.534;6.722;2022-10-28T02:07:27;13.23;;;6.20;;
15331;SDS011;7766;51.534;6.722;2022-10-28T02:08:34;15.33;;;6.50;;
15331;SDS011;7766;51.534;6.722;2022-10-28T02:10:02;17.67;;;8.33;;
15331;SDS011;7766;51.534;6.722;2022-10-28T02:12:40;17.40;;;8.27;;
15331;SDS011;7766;51.534;6.722;2022-10-28T02:16:27;15.50;;;6.77;;
15331;SDS011;7766;51.534;6.722;2022-10-28T02:17:37;12.03;;;5.73;;
15331;SDS011;7766;51.534;6.722;2022-10-28T02:19:13;13.50;;;5.80;;
15331;SDS011;7766;51.534;6.722;2022-10-28T02:20:33;12.97;;;5.73;;
15331;SDS011;7766;51.534;6.722;2022-10-28T02:22:14;11.47;;;6.07;;
15331;SDS011;7766;51.534;6.722;2022-10-28T02:25:59;9.90;;;4.10;;
15331;SDS011;7766;51.534;6.722;2022-10-28T02:27:30;7.70;;;4.37;;
15331;SDS011;7766;51.534;6.722;2022-10-28T02:28:40;10.57;;;4.40;;
15331;SDS011;7766;51.534;6.722;2022-10-28T02:31:19;14.10;;;4.70;;
15331;SDS011;7766;51.534;6.722;2022-10-28T02:32:43;11.57;;;4.50;;
15331;SDS011;7766;51.534;6.722;2022-10-28T02:33:49;11.70;;;4.80;;
15331;SDS011;7766;51.534;6.722;2022-10-28T02:34:57;12.83;;;4.47;;
15331;SDS011;7766;51.534;6.722;2022-10-28T02:36:04;15.17;;;4.80;;
15331;SDS011;7766;51.534;6.722;2022-10-28T02:37:12;15.03;;;4.77;;
15331;SDS011;7766;51.534;6.722;2022-10-28T02:38:20;10.20;;;4.97;;
15331;SDS011;7766;51.534;6.722;2022-10-28T02:39:36;11.20;;;4.60;;
15331;SDS011;7766;51.534;6.722;2022-10-28T02:40:40;14.07;;;5.37;;
15331;SDS011;7766;51.534;6.722;2022-10-28T02:43:02;11.53;;;4.77;;
15331;SDS011;7766;51.534;6.722;2022-10-28T02:44:08;12.83;;;4.73;;
15331;SDS011;7766;51.534;6.722;2022-10-28T02:45:14;12.97;;;4.63;;
15331;SDS011;7766;51.534;6.722;2022-10-28T02:46:20;16.07;;;4.77;;
15331;SDS011;7766;51.534;6.722;2022-10-28T02:47:24;10.60;;;4.90;;
15331;SDS011;7766;51.534;6.722;2022-10-28T02:48:48;9.73;;;4.67;;
15331;SDS011;7766;51.534;6.722;2022-10-28T02:49:54;12.70;;;4.10;;
15331;SDS011;7766;51.534;6.722;2022-10-28T02:51:00;9.60;;;4.40;;
15331;SDS011;7766;51.534;6.722;2022-10-28T02:52:29;14.80;;;4.70;;
15331;SDS011;7766;51.534;6.722;2022-10-28T02:53:32;12.93;;;5.37;;
15331;SDS011;7766;51.534;6.722;2022-10-28T02:54:52;7.07;;;4.50;;
15331;SDS011;7766;51.534;6.722;2022-10-28T02:55:55;9.83;;;4.40;;
15331;SDS011;7766;51.534;6.722;2022-10-28T02:57:05;9.43;;;4.93;;
15331;SDS011;7766;51.534;6.722;2022-10-28T02:58:38;10.60;;;4.23;;
15331;SDS011;7766;51.534;6.722;2022-10-28T02:59:39;18.37;;;5.10;;
15331;SDS011;7766;51.534;6.722;2022-10-28T03:00:44;9.47;;;4.30;;
15331;SDS011;7766;51.534;6.722;2022-10-28T03:01:46;9.33;;;4.80;;
15331;SDS011;7766;51.534;6.722;2022-10-28T03:02:47;10.37;;;4.83;;
15331;SDS011;7766;51.534;6.722;2022-10-28T03:03:48;10.70;;;4.77;;
15331;SDS011;7766;51.534;6.722;2022-10-28T03:04:48;7.97;;;4.53;;
15331;SDS011;7766;51.534;6.722;2022-10-28T03:05:49;11.33;;;4.63;;
15331;SDS011;7766;51.534;6.722;2022-10-28T03:06:50;11.13;;;4.37;;
15331;SDS011;7766;51.534;6.722;2022-10-28T03:07:51;12.93;;;4.53;;
15331;SDS011;7766;51.534;6.722;2022-10-28T03:08:52;13.07;;;4.70;;
15331;SDS011;7766;51.534;6.722;2022-10-28T03:09:53;11.70;;;4.50;;
15331;SDS011;7766;51.534;6.722;2022-10-28T03:10:54;10.37;;;4.93;;
15331;SDS011;7766;51.534;6.722;2022-10-28T03:11:55;11.73;;;5.03;;
15331;SDS011;7766;51.534;6.722;2022-10-28T03:12:56;9.90;;;4.87;;
15331;SDS011;7766;51.534;6.722;2022-10-28T03:13:57;14.57;;;4.93;;
15331;SDS011;7766;51.534;6.722;2022-10-28T03:14:58;10.97;;;4.70;;
15331;SDS011;7766;51.534;6.722;2022-10-28T03:15:59;10.03;;;4.73;;
15331;SDS011;7766;51.534;6.722;2022-10-28T03:17:00;8.97;;;4.40;;
15331;SDS011;7766;51.534;6.722;2022-10-28T03:18:01;12.23;;;4.97;;
15331;SDS011;7766;51.534;6.722;2022-10-28T03:19:02;13.33;;;4.67;;
15331;SDS011;7766;51.534;6.722;2022-10-28T03:20:03;13.87;;;4.40;;
15331;SDS011;7766;51.534;6.722;2022-10-28T03:21:04;11.73;;;4.63;;
15331;SDS011;7766;51.534;6.722;2022-10-28T03:22:05;13.23;;;5.50;;
15331;SDS011;7766;51.534;6.722;2022-10-28T03:23:06;11.27;;;5.47;;
15331;SDS011;7766;51.534;6.722;2022-10-28T03:24:07;13.23;;;4.57;;
15331;SDS011;7766;51.534;6.722;2022-10-28T03:25:08;8.27;;;4.40;;
15331;SDS011;7766;51.534;6.722;2022-10-28T03:26:10;10.97;;;5.30;;
15331;SDS011;7766;51.534;6.722;2022-10-28T03:27:11;12.73;;;4.70;;
15331;SDS011;7766;51.534;6.722;2022-10-28T03:28:12;11.17;;;5.23;;
15331;SDS011;7766;51.534;6.722;2022-10-28T03:29:12;12.83;;;5.03;;
15331;SDS011;7766;51.534;6.722;2022-10-28T03:30:13;9.73;;;4.73;;
15331;SDS011;7766;51.534;6.722;2022-10-28T03:31:14;10.27;;;4.50;;
15331;SDS011;7766;51.534;6.722;2022-10-28T03:32:16;12.70;;;4.53;;
15331;SDS011;7766;51.534;6.722;2022-10-28T03:33:17;12.60;;;4.97;;
15331;SDS011;7766;51.534;6.722;2022-10-28T03:34:18;10.70;;;5.37;;
15331;SDS011;7766;51.534;6.722;2022-10-28T03:35:18;10.53;;;4.10;;
15331;SDS011;7766;51.534;6.722;2022-10-28T03:36:19;13.23;;;5.10;;
15331;SDS011;7766;51.534;6.722;2022-10-28T03:37:20;9.10;;;4.23;;
15331;SDS011;7766;51.534;6.722;2022-10-28T03:38:21;11.23;;;4.80;;
15331;SDS011;7766;51.534;6.722;2022-10-28T03:39:22;15.10;;;5.33;;
15331;SDS011;7766;51.534;6.722;2022-10-28T03:40:23;14.47;;;5.10;;
15331;SDS011;7766;51.534;6.722;2022-10-28T03:41:24;17.23;;;5.50;;
15331;SDS011;7766;51.534;6.722;2022-10-28T03:42:25;18.67;;;5.00;;
15331;SDS011;7766;51.534;6.722;2022-10-28T03:43:26;15.83;;;5.63;;
15331;SDS011;7766;51.534;6.722;2022-10-28T03:44:27;11.73;;;4.90;;
15331;SDS011;7766;51.534;6.722;2022-10-28T03:45:28;9.87;;;4.37;;
15331;SDS011;7766;51.534;6.722;2022-10-28T03:46:29;11.67;;;4.87;;
15331;SDS011;7766;51.534;6.722;2022-10-28T03:47:30;16.20;;;5.17;;
15331;SDS011;7766;51.534;6.722;2022-10-28T03:48:31;15.87;;;4.83;;
15331;SDS011;7766;51.534;6.722;2022-10-28T03:49:31;12.93;;;5.13;;
15331;SDS011;7766;51.534;6.722;2022-10-28T03:50:32;13.27;;;5.53;;
15331;SDS011;7766;51.534;6.722;2022-10-28T03:51:33;11.60;;;5.10;;
15331;SDS011;7766;51.534;6.722;2022-10-28T03:52:34;15.17;;;4.97;;
15331;SDS011;7766;51.534;6.722;2022-10-28T03:53:36;13.60;;;5.13;;
15331;SDS011;7766;51.534;6.722;2022-10-28T03:54:36;13.27;;;4.20;;
15331;SDS011;7766;51.534;6.722;2022-10-28T03:55:37;13.20;;;5.03;;
15331;SDS011;7766;51.534;6.722;2022-10-28T03:56:38;10.10;;;4.93;;
15331;SDS011;7766;51.534;6.722;2022-10-28T03:57:39;13.20;;;4.90;;
15331;SDS011;7766;51.534;6.722;2022-10-28T03:58:40;12.13;;;5.40;;
15331;SDS011;7766;51.534;6.722;2022-10-28T03:59:42;15.47;;;4.97;;
15331;SDS011;7766;51.534;6.722;2022-10-28T04:00:42;12.23;;;5.00;;
15331;SDS011;7766;51.534;6.722;2022-10-28T04:01:43;18.00;;;5.37;;
15331;SDS011;7766;51.534;6.722;2022-10-28T04:02:50;11.03;;;5.23;;
15331;SDS011;7766;51.534;6.722;2022-10-28T04:03:52;14.57;;;5.47;;
15331;SDS011;7766;51.534;6.722;2022-10-28T04:04:53;9.33;;;4.90;;
15331;SDS011;7766;51.534;6.722;2022-10-28T04:05:54;17.60;;;5.87;;
15331;SDS011;7766;51.534;6.722;2022-10-28T04:06:55;19.40;;;6.10;;
15331;SDS011;7766;51.534;6.722;2022-10-28T04:07:56;9.97;;;5.67;;
15331;SDS011;7766;51.534;6.722;2022-10-28T04:08:57;16.73;;;5.47;;
15331;SDS011;7766;51.534;6.722;2022-10-28T04:09:58;15.80;;;5.70;;
15331;SDS011;7766;51.534;6.722;2022-10-28T04:10:58;12.73;;;5.40;;
15331;SDS011;7766;51.534;6.722;2022-10-28T04:11:59;11.60;;;5.60;;
15331;SDS011;7766;51.534;6.722;2022-10-28T04:13:01;13.23;;;5.60;;
15331;SDS011;7766;51.534;6.722;2022-10-28T04:14:04;13.07;;;5.40;;
15331;SDS011;7766;51.534;6.722;2022-10-28T04:15:05;11.87;;;4.70;;
15331;SDS011;7766;51.534;6.722;2022-10-28T04:16:06;11.30;;;5.20;;
15331;SDS011;7766;51.534;6.722;2022-10-28T04:17:07;11.37;;;4.87;;
15331;SDS011;7766;51.534;6.722;2022-10-28T04:18:08;11.90;;;4.83;;
15331;SDS011;7766;51.534;6.722;2022-10-28T04:19:09;13.03;;;4.83;;
15331;SDS011;7766;51.534;6.722;2022-10-28T04:20:10;14.47;;;4.87;;
15331;SDS011;7766;51.534;6.722;2022-10-28T04:21:11;12.53;;;5.30;;
15331;SDS011;7766;51.534;6.722;2022-10-28T04:22:12;11.00;;;4.60;;
15331;SDS011;7766;51.534;6.722;2022-10-28T04:23:16;13.73;;;4.63;;
15331;SDS011;7766;51.534;6.722;2022-10-28T04:24:17;9.67;;;4.77;;
15331;SDS011;7766;51.534;6.722;2022-10-28T04:25:18;11.47;;;4.43;;
15331;SDS011;7766;51.534;6.722;2022-10-28T04:26:19;13.47;;;4.90;;
15331;SDS011;7766;51.534;6.722;2022-10-28T04:27:20;13.30;;;4.80;;
15331;SDS011;7766;51.534;6.722;2022-10-28T04:28:21;8.43;;;4.50;;
15331;SDS011;7766;51.534;6.722;2022-10-28T04:29:25;12.90;;;4.67;;
15331;SDS011;7766;51.534;6.722;2022-10-28T04:30:26;9.60;;;4.53;;
15331;SDS011;7766;51.534;6.722;2022-10-28T04:31:27;14.67;;;5.00;;
15331;SDS011;7766;51.534;6.722;2022-10-28T04:32:28;9.43;;;4.40;;
15331;SDS011;7766;51.534;6.722;2022-10-28T04:33:29;8.73;;;4.73;;
15331;SDS011;7766;51.534;6.722;2022-10-28T04:34:30;14.13;;;4.80;;
15331;SDS011;7766;51.534;6.722;2022-10-28T04:35:31;15.13;;;4.60;;
15331;SDS011;7766;51.534;6.722;2022-10-28T04:36:31;14.33;;;4.47;;
15331;SDS011;7766;51.534;6.722;2022-10-28T04:37:32;16.77;;;5.00;;
15331;SDS011;7766;51.534;6.722;2022-10-28T04:38:34;13.63;;;4.80;;
15331;SDS011;7766;51.534;6.722;2022-10-28T04:39:35;22.20;;;6.03;;
15331;SDS011;7766;51.534;6.722;2022-10-28T04:40:36;13.30;;;4.97;;
15331;SDS011;7766;51.534;6.722;2022-10-28T04:41:37;14.20;;;5.47;;
15331;SDS011;7766;51.534;6.722;2022-10-28T04:42:38;16.30;;;5.10;;
15331;SDS011;7766;51.534;6.722;2022-10-28T04:43:39;13.77;;;4.80;;
15331;SDS011;7766;51.534;6.722;2022-10-28T04:44:40;12.37;;;4.90;;
15331;SDS011;7766;51.534;6.722;2022-10-28T04:45:41;10.83;;;4.43;;
15331;SDS011;7766;51.534;6.722;2022-10-28T04:46:42;12.93;;;5.30;;
15331;SDS011;7766;51.534;6.722;2022-10-28T04:47:43;14.77;;;5.33;;
15331;SDS011;7766;51.534;6.722;2022-10-28T04:48:45;20.60;;;5.10;;
15331;SDS011;7766;51.534;6.722;2022-10-28T04:49:46;15.27;;;5.13;;
15331;SDS011;7766;51.534;6.722;2022-10-28T04:50:47;15.20;;;5.23;;
15331;SDS011;7766;51.534;6.722;2022-10-28T04:51:49;21.20;;;4.87;;
15331;SDS011;7766;51.534;6.722;2022-10-28T04:52:50;12.90;;;5.60;;
15331;SDS011;7766;51.534;6.722;2022-10-28T04:53:51;15.43;;;4.80;;
15331;SDS011;7766;51.534;6.722;2022-10-28T04:54:52;15.53;;;5.50;;
15331;SDS011;7766;51.534;6.722;2022-10-28T04:55:57;19.03;;;5.63;;
15331;SDS011;7766;51.534;6.722;2022-10-28T04:56:58;14.70;;;5.80;;
15331;SDS011;7766;51.534;6.722;2022-10-28T04:57:59;18.00;;;5.67;;
15331;SDS011;7766;51.534;6.722;2022-10-28T04:59:01;17.40;;;4.97;;
15331;SDS011;7766;51.534;6.722;2022-10-28T05:00:02;11.07;;;5.57;;
15331;SDS011;7766;51.534;6.722;2022-10-28T05:01:05;16.33;;;5.50;;
15331;SDS011;7766;51.534;6.722;2022-10-28T05:02:06;20.33;;;5.63;;
15331;SDS011;7766;51.534;6.722;2022-10-28T05:03:07;16.77;;;5.20;;
15331;SDS011;7766;51.534;6.722;2022-10-28T05:04:08;12.83;;;4.67;;
15331;SDS011;7766;51.534;6.722;2022-10-28T05:05:09;15.83;;;5.27;;
15331;SDS011;7766;51.534;6.722;2022-10-28T05:06:10;20.17;;;6.17;;
15331;SDS011;7766;51.534;6.722;2022-10-28T05:07:11;16.27;;;5.90;;
15331;SDS011;7766;51.534;6.722;2022-10-28T05:08:12;18.40;;;5.17;;
15331;SDS011;7766;51.534;6.722;2022-10-28T05:09:13;16.90;;;5.30;;
15331;SDS011;7766;51.534;6.722;2022-10-28T05:10:14;16.83;;;5.27;;
15331;SDS011;7766;51.534;6.722;2022-10-28T05:11:16;12.07;;;4.93;;
15331;SDS011;7766;51.534;6.722;2022-10-28T05:12:17;18.30;;;5.20;;
15331;SDS011;7766;51.534;6.722;2022-10-28T05:13:18;12.93;;;5.10;;
15331;SDS011;7766;51.534;6.722;2022-10-28T05:14:19;17.03;;;5.77;;
15331;SDS011;7766;51.534;6.722;2022-10-28T05:15:20;16.20;;;5.83;;
15331;SDS011;7766;51.534;6.722;2022-10-28T05:16:21;15.33;;;5.30;;
15331;SDS011;7766;51.534;6.722;2022-10-28T05:17:22;19.07;;;5.00;;
15331;SDS011;7766;51.534;6.722;2022-10-28T05:18:23;14.33;;;5.37;;
15331;SDS011;7766;51.534;6.722;2022-10-28T05:19:24;20.33;;;5.17;;
15331;SDS011;7766;51.534;6.722;2022-10-28T05:20:24;17.80;;;6.20;;
15331;SDS011;7766;51.534;6.722;2022-10-28T05:21:25;16.87;;;5.77;;
15331;SDS011;7766;51.534;6.722;2022-10-28T05:22:27;20.30;;;5.30;;
15331;SDS011;7766;51.534;6.722;2022-10-28T05:23:28;20.17;;;5.60;;
15331;SDS011;7766;51.534;6.722;2022-10-28T05:24:29;22.30;;;5.47;;
15331;SDS011;7766;51.534;6.722;2022-10-28T05:25:30;16.33;;;4.70;;
15331;SDS011;7766;51.534;6.722;2022-10-28T05:26:31;18.57;;;5.73;;
15331;SDS011;7766;51.534;6.722;2022-10-28T05:27:32;20.73;;;5.93;;
15331;SDS011;7766;51.534;6.722;2022-10-28T05:28:33;15.10;;;4.70;;
15331;SDS011;7766;51.534;6.722;2022-10-28T05:29:34;21.67;;;5.40;;
15331;SDS011;7766;51.534;6.722;2022-10-28T05:30:35;16.40;;;6.00;;
15331;SDS011;7766;51.534;6.722;2022-10-28T05:31:36;17.37;;;5.87;;
15331;SDS011;7766;51.534;6.722;2022-10-28T05:32:37;16.37;;;4.80;;
15331;SDS011;7766;51.534;6.722;2022-10-28T05:33:38;22.17;;;5.20;;
15331;SDS011;7766;51.534;6.722;2022-10-28T05:34:39;17.60;;;5.30;;
15331;SDS011;7766;51.534;6.722;2022-10-28T05:35:41;17.77;;;5.83;;
15331;SDS011;7766;51.534;6.722;2022-10-28T05:36:42;16.10;;;5.30;;
15331;SDS011;7766;51.534;6.722;2022-10-28T05:37:42;15.13;;;5.70;;
15331;SDS011;7766;51.534;6.722;2022-10-28T05:38:43;15.60;;;5.10;;
15331;SDS011;7766;51.534;6.722;2022-10-28T05:39:44;16.23;;;5.60;;
15331;SDS011;7766;51.534;6.722;2022-10-28T05:40:45;14.63;;;5.33;;
15331;SDS011;7766;51.534;6.722;2022-10-28T05:41:46;17.00;;;5.53;;
15331;SDS011;7766;51.534;6.722;2022-10-28T05:42:47;15.93;;;5.90;;
15331;SDS011;7766;51.534;6.722;2022-10-28T05:43:49;17.10;;;5.67;;
15331;SDS011;7766;51.534;6.722;2022-10-28T05:44:51;16.20;;;6.10;;
15331;SDS011;7766;51.534;6.722;2022-10-28T05:45:53;12.80;;;5.57;;
15331;SDS011;7766;51.534;6.722;2022-10-28T05:46:55;14.77;;;5.50;;
15331;SDS011;7766;51.534;6.722;2022-10-28T05:47:56;14.57;;;5.50;;
15331;SDS011;7766;51.534;6.722;2022-10-28T05:48:57;14.47;;;5.30;;
15331;SDS011;7766;51.534;6.722;2022-10-28T05:49:58;12.67;;;5.70;;
15331;SDS011;7766;51.534;6.722;2022-10-28T05:50:59;19.87;;;6.00;;
15331;SDS011;7766;51.534;6.722;2022-10-28T05:52:00;11.17;;;5.37;;
15331;SDS011;7766;51.534;6.722;2022-10-28T05:53:01;11.87;;;5.33;;
15331;SDS011;7766;51.534;6.722;2022-10-28T05:54:02;15.50;;;5.83;;
15331;SDS011;7766;51.534;6.722;2022-10-28T05:55:03;16.70;;;5.20;;
15331;SDS011;7766;51.534;6.722;2022-10-28T05:56:05;14.80;;;6.47;;
15331;SDS011;7766;51.534;6.722;2022-10-28T05:57:06;14.67;;;5.50;;
15331;SDS011;7766;51.534;6.722;2022-10-28T05:58:06;14.93;;;5.77;;
15331;SDS011;7766;51.534;6.722;2022-10-28T05:59:09;14.20;;;5.80;;
15331;SDS011;7766;51.534;6.722;2022-10-28T06:00:10;17.33;;;6.00;;
15331;SDS011;7766;51.534;6.722;2022-10-28T06:01:11;20.40;;;6.40;;
15331;SDS011;7766;51.534;6.722;2022-10-28T06:02:12;20.50;;;6.00;;
15331;SDS011;7766;51.534;6.722;2022-10-28T06:03:14;13.13;;;5.70;;
15331;SDS011;7766;51.534;6.722;2022-10-28T06:04:15;15.00;;;6.27;;
15331;SDS011;7766;51.534;6.722;2022-10-28T06:05:16;16.60;;;5.73;;
15331;SDS011;7766;51.534;6.722;2022-10-28T06:06:17;16.07;;;6.23;;
15331;SDS011;7766;51.534;6.722;2022-10-28T06:07:18;12.00;;;5.60;;
15331;SDS011;7766;51.534;6.722;2022-10-28T06:08:19;14.80;;;5.27;;
15331;SDS011;7766;51.534;6.722;2022-10-28T06:09:20;16.23;;;5.80;;
15331;SDS011;7766;51.534;6.722;2022-10-28T06:10:21;17.00;;;6.47;;
15331;SDS011;7766;51.534;6.722;2022-10-28T06:11:21;19.43;;;5.77;;
15331;SDS011;7766;51.534;6.722;2022-10-28T06:12:23;15.80;;;5.73;;
15331;SDS011;7766;51.534;6.722;2022-10-28T06:13:24;17.70;;;7.00;;
15331;SDS011;7766;51.534;6.722;2022-10-28T06:14:25;20.70;;;6.30;;
15331;SDS011;7766;51.534;6.722;2022-10-28T06:15:26;15.30;;;6.20;;
15331;SDS011;7766;51.534;6.722;2022-10-28T06:16:27;14.97;;;6.23;;
15331;SDS011;7766;51.534;6.722;2022-10-28T06:17:29;16.20;;;7.00;;
15331;SDS011;7766;51.534;6.722;2022-10-28T06:18:30;17.73;;;7.23;;
15331;SDS011;7766;51.534;6.722;2022-10-28T06:19:31;20.27;;;6.90;;
15331;SDS011;7766;51.534;6.722;2022-10-28T06:20:32;25.30;;;7.07;;
15331;SDS011;7766;51.534;6.722;2022-10-28T06:21:33;20.57;;;7.33;;
15331;SDS011;7766;51.534;6.722;2022-10-28T06:22:34;22.40;;;7.07;;
15331;SDS011;7766;51.534;6.722;2022-10-28T06:23:35;14.80;;;6.57;;
15331;SDS011;7766;51.534;6.722;2022-10-28T06:24:36;19.97;;;6.70;;
15331;SDS011;7766;51.534;6.722;2022-10-28T06:25:36;21.40;;;6.40;;
15331;SDS011;7766;51.534;6.722;2022-10-28T06:26:37;20.07;;;6.33;;
15331;SDS011;7766;51.534;6.722;2022-10-28T06:27:38;24.17;;;6.00;;
15331;SDS011;7766;51.534;6.722;2022-10-28T06:28:39;17.40;;;5.97;;
15331;SDS011;7766;51.534;6.722;2022-10-28T06:29:40;21.67;;;6.77;;
15331;SDS011;7766;51.534;6.722;2022-10-28T06:30:41;20.27;;;6.87;;
15331;SDS011;7766;51.534;6.722;2022-10-28T06:31:42;17.13;;;6.40;;
15331;SDS011;7766;51.534;6.722;2022-10-28T06:32:43;19.73;;;6.33;;
15331;SDS011;7766;51.534;6.722;2022-10-28T06:33:44;16.33;;;6.80;;
15331;SDS011;7766;51.534;6.722;2022-10-28T06:34:45;21.57;;;7.03;;
15331;SDS011;7766;51.534;6.722;2022-10-28T06:35:46;17.83;;;6.47;;
15331;SDS011;7766;51.534;6.722;2022-10-28T06:36:47;13.30;;;6.47;;
15331;SDS011;7766;51.534;6.722;2022-10-28T06:37:52;19.93;;;7.17;;
15331;SDS011;7766;51.534;6.722;2022-10-28T06:38:54;16.47;;;6.43;;
15331;SDS011;7766;51.534;6.722;2022-10-28T06:39:55;16.67;;;6.40;;
15331;SDS011;7766;51.534;6.722;2022-10-28T06:40:59;18.37;;;6.97;;
15331;SDS011;7766;51.534;6.722;2022-10-28T06:42:00;31.30;;;11.53;;
15331;SDS011;7766;51.534;6.722;2022-10-28T06:43:02;23.27;;;10.10;;
15331;SDS011;7766;51.534;6.722;2022-10-28T06:44:05;39.37;;;15.37;;
15331;SDS011;7766;51.534;6.722;2022-10-28T06:45:07;70.93;;;25.80;;
15331;SDS011;7766;51.534;6.722;2022-10-28T06:46:08;40.87;;;17.27;;
15331;SDS011;7766;51.534;6.722;2022-10-28T06:47:09;32.60;;;12.83;;
15331;SDS011;7766;51.534;6.722;2022-10-28T06:48:10;28.87;;;11.67;;
15331;SDS011;7766;51.534;6.722;2022-10-28T06:49:11;30.87;;;9.43;;
15331;SDS011;7766;51.534;6.722;2022-10-28T06:50:12;21.30;;;7.90;;
15331;SDS011;7766;51.534;6.722;2022-10-28T06:51:13;18.53;;;6.63;;